.
WxDataArchive / Data Records for 2006-10-30
2006-10-29 October 2006 2006-10-31

Data Records for Monday, 30 October 2006

Time	Temp	Chill	HIndex	Humid	Dewpt	 Wind 	HiWind	WindDir	Rain 	Barom 
-----	----	-----	------	-----	-----	------	------	-------	-----	----- 
00:00	34.7	34.7	34.7	73	26.9	0	0	---	0.00	29.922 
00:05	34.6	34.6	34.6	73	26.9	0	0	---	0.00	29.922 
00:10	34.4	34.4	34.4	74	27.0	0	0	---	0.00	29.922 
00:15	34.3	34.3	34.3	75	27.2	0	0	---	0.00	29.925 
00:20	34.1	34.1	34.1	75	27.0	0	0	---	0.00	29.925 
00:25	34.0	34.0	34.0	76	27.2	0	0	---	0.00	29.925 
00:30	33.8	33.8	33.8	76	27.1	0	0	---	0.00	29.929 
00:35	33.7	33.7	33.7	76	27.0	0	0	---	0.00	29.929 
00:40	33.5	33.5	33.5	77	27.1	0	0	---	0.00	29.929 
00:45	33.5	33.5	33.5	77	27.1	0	0	---	0.00	29.918 
00:50	33.7	33.7	33.7	78	27.6	0	0	---	0.00	29.918 
00:55	33.7	33.7	33.7	78	27.6	0	0	---	0.00	29.918 
01:00	33.5	33.5	33.5	79	27.7	0	0	---	0.00	29.916 
01:05	33.5	33.5	33.5	79	27.7	0	0	---	0.00	29.916 
01:10	33.4	33.4	33.4	79	27.6	0	0	---	0.00	29.916 
01:15	33.2	33.2	33.2	79	27.4	0	0	---	0.00	29.914 
01:20	33.1	33.1	33.1	80	27.6	0	0	---	0.00	29.914 
01:25	32.9	32.9	32.9	80	27.4	0	0	---	0.00	29.914 
01:30	32.8	32.8	32.8	80	27.3	0	0	---	0.00	29.917 
01:35	32.7	32.7	32.7	81	27.5	0	0	---	0.00	29.917 
01:40	32.7	32.7	32.7	81	27.5	0	0	---	0.00	29.917 
01:45	32.5	32.5	32.5	81	27.3	0	0	---	0.00	29.916 
01:50	32.5	32.5	32.5	81	27.3	0	0	---	0.00	29.916 
01:55	32.5	32.5	32.5	81	27.3	0	0	---	0.00	29.916 
02:00	32.4	32.4	32.4	82	27.5	0	0	---	0.00	29.916 
02:05	32.4	32.4	32.4	83	27.8	0	0	---	0.00	29.916 
02:10	32.2	32.2	32.2	83	27.6	0	0	---	0.00	29.916 
02:15	32.2	32.2	32.2	84	27.9	0	0	---	0.00	29.915 
02:20	32.1	32.1	32.1	84	27.8	0	0	---	0.00	29.915 
02:25	32.1	32.1	32.1	84	27.8	0	0	---	0.00	29.915 
02:30	31.9	31.9	31.9	85	27.9	0	0	---	0.00	29.913 
02:35	31.9	31.9	31.9	85	27.9	0	0	---	0.00	29.913 
02:40	31.8	31.8	31.8	85	27.8	0	0	---	0.00	29.913 
02:45	31.6	31.6	31.6	85	27.6	0	0	---	0.00	29.916 
02:50	31.6	31.6	31.6	85	27.6	0	0	---	0.00	29.916 
02:55	31.5	31.5	31.5	86	27.8	0	0	---	0.00	29.916 
03:00	31.5	31.5	31.5	86	27.8	0	0	---	0.00	29.914 
03:05	31.5	31.5	31.5	87	28.1	0	0	---	0.00	29.914 
03:10	31.3	31.3	31.3	87	27.9	0	0	---	0.00	29.914 
03:15	31.3	31.3	31.3	87	27.9	0	0	---	0.00	29.903 
03:20	31.3	31.3	31.3	87	27.9	0	0	---	0.00	29.903 
03:25	31.3	31.3	31.3	87	27.9	0	0	---	0.00	29.903 
03:30	31.3	31.3	31.3	88	28.2	0	0	---	0.00	29.900 
03:35	31.3	31.3	31.3	87	27.9	0	0	---	0.00	29.900 
03:40	31.3	31.3	31.3	87	27.9	0	0	---	0.00	29.900 
03:45	31.2	31.2	31.2	87	27.8	0	0	---	0.00	29.897 
03:50	31.2	31.2	31.2	87	27.8	0	0	---	0.00	29.897 
03:55	31.0	31.0	31.0	87	27.6	0	0	---	0.00	29.897 
04:00	31.0	31.0	31.0	87	27.6	0	0	---	0.00	29.894 
04:05	31.0	31.0	31.0	88	27.9	0	0	---	0.00	29.894 
04:10	30.9	30.9	30.9	88	27.8	0	0	---	0.00	29.894 
04:15	30.9	30.9	30.9	88	27.8	0	0	---	0.00	29.899 
04:20	30.9	30.9	30.9	88	27.8	0	0	---	0.00	29.899 
04:25	30.9	30.9	30.9	88	27.8	0	0	---	0.00	29.899 
04:30	30.9	30.9	30.9	88	27.8	0	0	---	0.00	29.901 
04:35	30.9	30.9	30.9	88	27.8	0	0	---	0.00	29.901 
04:40	30.7	30.7	30.7	88	27.6	0	0	---	0.00	29.901 
04:45	30.7	30.7	30.7	88	27.6	0	0	---	0.00	29.902 
04:50	30.7	30.7	30.7	89	27.8	0	0	---	0.00	29.902 
04:55	30.7	30.7	30.7	89	27.8	0	0	---	0.00	29.902 
05:00	30.7	30.7	30.7	89	27.8	0	0	---	0.00	29.904 
05:05	30.7	30.7	30.7	88	27.6	0	0	---	0.00	29.904 
05:10	30.7	30.7	30.7	89	27.8	0	0	---	0.00	29.904 
05:15	30.7	30.7	30.7	89	27.8	0	0	---	0.00	29.908 
05:20	30.7	30.7	30.7	89	27.8	0	0	---	0.00	29.908 
05:25	30.7	30.7	30.7	89	27.8	0	0	---	0.00	29.908 
05:30	30.6	30.6	30.6	89	27.8	0	0	---	0.00	29.906 
05:35	30.6	30.6	30.6	89	27.8	0	0	---	0.00	29.906 
05:40	30.6	30.6	30.6	89	27.8	0	0	---	0.00	29.906 
05:45	30.6	30.6	30.6	90	28.0	0	0	---	0.00	29.908 
05:50	30.6	30.6	30.6	90	28.0	0	0	---	0.00	29.908 
05:55	30.7	30.7	30.7	90	28.1	0	0	---	0.00	29.908 
06:00	30.7	30.7	30.7	90	28.1	0	0	---	0.00	29.910 
06:05	30.7	30.7	30.7	90	28.1	0	0	---	0.00	29.910 
06:10	30.9	30.9	30.9	91	28.6	0	0	---	0.00	29.910 
06:15	30.9	30.9	30.9	91	28.6	0	0	---	0.00	29.913 
06:20	30.7	30.7	30.7	91	28.4	0	0	---	0.00	29.913 
06:25	30.7	30.7	30.7	91	28.4	0	0	---	0.00	29.913 
06:30	30.7	30.7	30.7	91	28.4	0	0	---	0.00	29.912 
06:35	30.9	30.9	30.9	91	28.6	0	0	---	0.00	29.912 
06:40	30.9	30.9	30.9	91	28.6	0	0	---	0.00	29.912 
06:45	30.9	30.9	30.9	92	28.9	0	0	---	0.00	29.912 
06:50	31.0	31.0	31.0	92	29.0	0	0	---	0.00	29.912 
06:55	31.2	31.2	31.2	92	29.2	0	0	---	0.00	29.912 
07:00	31.3	31.3	31.3	92	29.3	0	0	---	0.00	29.912 
07:05	31.5	31.5	31.5	92	29.4	0	0	---	0.00	29.912 
07:10	31.6	31.6	31.6	92	29.5	0	0	---	0.00	29.912 
07:15	31.8	31.8	31.8	92	29.7	0	0	---	0.00	29.913 
07:20	31.9	31.9	31.9	92	29.8	0	0	---	0.00	29.913 
07:25	31.9	31.9	31.9	92	29.8	0	0	---	0.00	29.913 
07:30	32.1	32.1	32.1	92	30.0	0	0	---	0.00	29.912 
07:35	32.4	32.4	32.4	93	30.6	0	0	---	0.00	29.912 
07:40	32.5	32.5	32.5	93	30.7	0	1	158	0.00	29.912 
07:45	32.8	32.8	32.8	93	31.0	0	0	---	0.00	29.909 
07:50	33.1	33.1	33.1	93	31.3	0	0	---	0.00	29.909 
07:55	33.8	33.8	33.8	94	32.3	0	0	---	0.00	29.909 
08:00	35.2	35.2	35.2	95	33.9	0	0	---	0.00	29.903 
08:05	37.0	37.0	37.0	96	36.0	0	1	158	0.00	29.903 
08:10	39.1	39.1	39.1	96	38.1	0	1	158	0.00	29.903 
08:15	40.6	40.6	40.6	96	39.5	0	1	158	0.00	29.901 
08:20	41.6	41.6	41.6	95	40.3	0	1	135	0.00	29.901 
08:25	43.1	43.1	43.1	92	40.9	0	3	248	0.00	29.901 
08:30	44.3	44.3	44.3	89	41.3	0	2	248	0.00	29.902 
08:35	46.1	46.1	46.1	85	41.8	1	6	270	0.00	29.902 
08:40	47.6	47.6	47.6	81	42.1	2	5	248	0.00	29.902 
08:45	48.6	48.6	48.6	78	42.1	1	6	270	0.00	29.897 
08:50	49.5	49.5	49.5	77	42.6	1	6	270	0.00	29.897 
08:55	50.2	50.2	50.2	75	42.6	2	5	270	0.00	29.897 
09:00	51.0	51.0	51.0	75	43.4	1	7	225	0.00	29.895 
09:05	51.6	51.6	51.6	73	43.2	2	5	248	0.00	29.895 
09:10	52.2	52.2	52.2	73	43.8	2	4	248	0.00	29.895 
09:15	52.8	52.8	52.8	73	44.4	2	10	270	0.00	29.894 
09:20	53.3	53.3	53.3	71	44.1	2	6	248	0.00	29.894 
09:25	53.8	53.8	53.8	70	44.2	2	6	248	0.00	29.894 
09:30	54.4	54.4	54.4	69	44.4	3	9	248	0.00	29.890 
09:35	54.8	54.8	54.8	69	44.8	2	6	248	0.00	29.890 
09:40	55.4	55.4	55.4	68	45.0	1	4	248	0.00	29.890 
09:45	56.2	56.2	56.2	68	45.8	2	6	248	0.00	29.885 
09:50	56.9	56.9	56.9	65	45.3	2	7	270	0.00	29.885 
09:55	57.3	57.3	57.3	65	45.6	2	5	248	0.00	29.885 
10:00	58.0	58.0	58.0	64	45.9	2	6	270	0.00	29.879 
10:05	58.6	58.6	58.6	64	46.5	2	9	248	0.00	29.879 
10:10	58.9	58.9	58.9	62	45.9	3	7	248	0.00	29.879 
10:15	59.0	59.0	59.0	62	46.0	3	7	248	0.00	29.875 
10:20	59.5	59.5	59.5	62	46.5	3	7	248	0.00	29.875 
10:25	59.8	59.8	59.8	62	46.8	3	9	270	0.00	29.875 
10:30	60.1	60.1	60.1	60	46.2	2	6	248	0.00	29.876 
10:35	60.4	60.4	60.4	60	46.4	4	9	270	0.00	29.876 
10:40	60.9	60.9	60.9	61	47.4	2	7	248	0.00	29.876 
10:45	61.5	61.5	61.5	61	47.9	1	5	248	0.00	29.871 
10:50	62.0	62.0	62.0	63	49.3	2	6	248	0.00	29.871 
10:55	62.4	62.4	62.4	58	47.4	1	5	248	0.00	29.871 
11:00	62.6	62.6	62.6	57	47.1	3	9	248	0.00	29.868 
11:05	62.6	62.6	62.6	58	47.6	3	9	248	0.00	29.868 
11:10	62.7	62.7	62.7	57	47.2	3	10	270	0.00	29.868 
11:15	63.2	63.2	63.2	59	48.6	2	7	248	0.00	29.870 
11:20	63.9	63.9	63.9	57	48.4	2	5	248	0.00	29.870 
11:25	64.2	64.2	64.2	58	49.1	3	6	248	0.00	29.870 
11:30	64.3	64.3	64.3	55	47.8	2	9	270	0.00	29.867 
11:35	64.7	64.7	64.7	59	50.0	1	4	315	0.00	29.867 
11:40	65.2	65.2	65.2	53	47.6	2	6	248	0.00	29.867 
11:45	65.5	65.5	65.5	55	48.9	2	5	248	0.00	29.855 
11:50	65.6	65.6	65.6	55	49.0	1	3	22	0.00	29.855 
11:55	66.0	66.0	66.0	54	48.9	2	5	45	0.00	29.855 
12:00	66.1	66.1	66.1	53	48.5	2	5	90	0.00	29.852 
12:05	66.3	66.3	66.3	51	47.6	3	9	270	0.00	29.852 
12:10	66.6	66.6	66.6	51	47.9	2	7	248	0.00	29.852 
12:15	67.1	67.1	67.1	51	48.4	2	7	248	0.00	29.841 
12:20	67.6	67.6	67.6	51	48.8	2	5	248	0.00	29.841 
12:25	67.8	67.8	67.8	49	47.9	3	7	270	0.00	29.841 
12:30	67.9	67.9	67.9	51	49.1	2	9	248	0.00	29.835 
12:35	67.9	67.9	67.9	47	46.9	4	11	248	0.00	29.835 
12:40	68.1	68.1	68.1	46	46.5	4	12	248	0.00	29.835 
12:45	68.3	68.3	68.3	48	47.8	3	9	248	0.00	29.824 
12:50	68.8	68.8	68.8	45	46.6	4	11	248	0.00	29.824 
12:55	69.1	69.1	69.1	44	46.3	4	9	248	0.00	29.824 
13:00	69.1	69.1	69.1	45	46.9	4	10	248	0.00	29.814 
13:05	69.3	69.3	69.3	46	47.6	3	11	248	0.00	29.814 
13:10	69.4	69.4	69.4	44	46.5	4	12	248	0.00	29.814 
13:15	69.6	69.6	69.6	47	48.5	2	7	270	0.00	29.803 
13:20	69.4	69.4	69.4	46	47.7	3	10	68	0.00	29.803 
13:25	69.3	69.3	69.3	45	47.0	4	11	270	0.00	29.803 
13:30	69.6	69.6	69.6	46	47.9	3	7	270	0.00	29.799 
13:35	69.9	69.9	69.9	46	48.2	2	6	248	0.00	29.799 
13:40	70.1	70.1	70.1	45	47.8	4	12	270	0.00	29.799 
13:45	70.4	70.4	70.4	45	48.0	4	11	248	0.00	29.789 
13:50	70.8	70.8	70.8	43	47.2	3	7	248	0.00	29.789 
13:55	70.8	70.8	70.8	41	45.9	4	14	270	0.00	29.789 
14:00	70.8	70.8	70.8	39	44.6	5	12	270	0.00	29.786 
14:05	70.9	70.9	70.9	39	44.7	5	12	248	0.00	29.786 
14:10	70.8	70.8	70.8	40	45.3	6	14	270	0.00	29.786 
14:15	70.8	70.8	70.8	43	47.2	3	15	270	0.00	29.777 
14:20	70.4	70.4	70.4	43	46.8	3	6	270	0.00	29.777 
14:25	70.3	70.3	70.3	43	46.7	2	10	315	0.00	29.777 
14:30	70.3	70.3	70.3	43	46.7	3	9	248	0.00	29.772 
14:35	70.8	70.8	70.8	42	46.6	3	9	270	0.00	29.772 
14:40	70.9	70.9	70.9	40	45.4	3	9	248	0.00	29.772 
14:45	70.8	70.8	70.8	39	44.6	4	15	270	0.00	29.761 
14:50	70.8	70.8	70.8	38	43.9	4	17	248	0.00	29.761 
14:55	70.8	70.8	70.8	38	43.9	3	10	270	0.00	29.761 
15:00	70.4	70.4	70.4	38	43.6	4	11	270	0.00	29.759 
15:05	70.3	70.3	70.3	37	42.8	5	16	270	0.00	29.759 
15:10	70.1	70.1	70.1	38	43.3	4	7	248	0.00	29.759 
15:15	69.9	69.9	69.9	38	43.1	5	13	248	0.00	29.760 
15:20	69.8	69.8	69.8	39	43.7	3	7	270	0.00	29.760 
15:25	69.6	69.6	69.6	42	45.5	2	6	90	0.00	29.760 
15:30	69.4	69.4	69.4	43	45.9	3	9	90	0.00	29.759 
15:35	69.4	69.4	69.4	43	45.9	2	5	270	0.00	29.759 
15:40	69.1	69.1	69.1	42	45.0	3	7	270	0.00	29.759 
15:45	68.9	68.9	68.9	43	45.5	4	12	270	0.00	29.759 
15:50	68.6	68.6	68.6	42	44.6	4	12	248	0.00	29.759 
15:55	68.4	68.4	68.4	43	45.0	3	9	248	0.00	29.759 
16:00	68.1	68.1	68.1	44	45.4	3	12	270	0.00	29.757 
16:05	67.9	67.9	67.9	45	45.8	2	6	270	0.00	29.757 
16:10	67.8	67.8	67.8	45	45.7	2	6	270	0.00	29.757 
16:15	67.8	67.8	67.8	47	46.8	2	5	270	0.00	29.751 
16:20	67.6	67.6	67.6	46	46.1	1	3	315	0.00	29.751 
16:25	67.4	67.4	67.4	46	45.9	2	4	248	0.00	29.751 
16:30	67.4	67.4	67.4	47	46.5	1	4	90	0.00	29.746 
16:35	67.3	67.3	67.3	47	46.4	1	6	338	0.00	29.746 
16:40	67.3	67.3	67.3	46	45.8	2	7	68	0.00	29.746 
16:45	67.4	67.4	67.4	46	45.9	2	9	112	0.00	29.744 
16:50	67.3	67.3	67.3	46	45.8	2	6	112	0.00	29.744 
16:55	67.3	67.3	67.3	46	45.8	1	4	248	0.00	29.744 
17:00	67.3	67.3	67.3	46	45.8	2	7	90	0.00	29.740 
17:05	67.1	67.1	67.1	46	45.6	1	5	22	0.00	29.740 
17:10	67.1	67.1	67.1	46	45.6	2	5	90	0.00	29.740 
17:15	67.1	67.1	67.1	45	45.0	2	4	315	0.00	29.737 
17:20	66.9	66.9	66.9	44	44.3	2	5	90	0.00	29.737 
17:25	67.3	67.3	67.3	43	44.0	3	7	90	0.00	29.737 
17:30	67.1	67.1	67.1	43	43.8	2	5	22	0.00	29.731 
17:35	67.1	67.1	67.1	43	43.8	3	7	90	0.00	29.731 
17:40	66.9	66.9	66.9	43	43.7	1	5	90	0.00	29.731 
17:45	66.8	66.8	66.8	43	43.6	2	5	45	0.00	29.730 
17:50	66.8	66.8	66.8	43	43.6	2	5	68	0.00	29.730 
17:55	66.9	66.9	66.9	43	43.7	2	5	90	0.00	29.730 
18:00	66.9	66.9	66.9	43	43.7	2	4	90	0.00	29.733 
18:05	66.9	66.9	66.9	42	43.1	1	4	90	0.00	29.733 
18:10	66.9	66.9	66.9	42	43.1	2	6	90	0.00	29.733 
18:15	66.8	66.8	66.8	42	43.0	2	10	90	0.00	29.726 
18:20	66.6	66.6	66.6	41	42.2	2	7	248	0.00	29.726 
18:25	66.6	66.6	66.6	41	42.2	2	6	270	0.00	29.726 
18:30	66.4	66.4	66.4	41	42.0	1	5	45	0.00	29.728 
18:35	66.4	66.4	66.4	40	41.3	3	10	112	0.00	29.728 
18:40	66.3	66.3	66.3	41	41.9	2	9	0	0.00	29.728 
18:45	66.1	66.1	66.1	41	41.7	2	6	112	0.00	29.729 
18:50	66.0	66.0	66.0	41	41.6	2	6	68	0.00	29.729 
18:55	65.8	65.8	65.8	41	41.4	3	9	292	0.00	29.729 
19:00	65.6	65.6	65.6	41	41.3	2	9	248	0.00	29.731 
19:05	65.5	65.5	65.5	41	41.2	2	7	292	0.00	29.731 
19:10	65.3	65.3	65.3	41	41.0	3	10	90	0.00	29.731 
19:15	65.3	65.3	65.3	41	41.0	3	9	248	0.00	29.731 
19:20	65.2	65.2	65.2	42	41.5	2	10	248	0.00	29.731 
19:25	64.8	64.8	64.8	43	41.8	2	6	270	0.00	29.731 
19:30	64.5	64.5	64.5	43	41.5	2	6	68	0.00	29.724 
19:35	64.3	64.3	64.3	44	41.9	2	9	270	0.00	29.724 
19:40	64.3	64.3	64.3	44	41.9	2	7	22	0.00	29.724 
19:45	64.3	64.3	64.3	43	41.3	3	10	270	0.00	29.729 
19:50	64.2	64.2	64.2	44	41.8	2	5	248	0.00	29.729 
19:55	64.0	64.0	64.0	43	41.1	3	9	270	0.00	29.729 
20:00	64.0	64.0	64.0	44	41.6	3	9	270	0.00	29.729 
20:05	63.9	63.9	63.9	44	41.6	2	6	225	0.00	29.729 
20:10	63.7	63.7	63.7	44	41.4	2	7	270	0.00	29.729 
20:15	63.7	63.7	63.7	44	41.4	2	7	270	0.00	29.716 
20:20	63.5	63.5	63.5	44	41.2	2	7	248	0.00	29.716 
20:25	63.5	63.5	63.5	45	41.8	2	10	270	0.00	29.716 
20:30	63.5	63.5	63.5	45	41.8	3	10	248	0.00	29.713 
20:35	63.5	63.5	63.5	45	41.8	3	9	248	0.00	29.713 
20:40	63.5	63.5	63.5	45	41.8	3	10	270	0.00	29.713 
20:45	63.5	63.5	63.5	45	41.8	3	9	248	0.00	29.713 
20:50	63.2	63.2	63.2	46	42.1	2	7	248	0.00	29.713 
20:55	63.2	63.2	63.2	46	42.1	3	6	248	0.00	29.713 
21:00	63.4	63.4	63.4	46	42.3	3	8	270	0.00	29.719 
21:05	63.4	63.4	63.4	47	42.8	3	8	248	0.00	29.719 
21:10	63.2	63.2	63.2	47	42.6	3	11	225	0.00	29.719 
21:15	63.1	63.1	63.1	47	42.5	2	5	270	0.00	29.714 
21:20	63.1	63.1	63.1	48	43.1	3	10	248	0.00	29.714 
21:25	63.1	63.1	63.1	48	43.1	2	5	248	0.00	29.714 
21:30	63.1	63.1	63.1	48	43.1	3	7	248	0.00	29.712 
21:35	62.9	62.9	62.9	48	42.9	2	6	90	0.00	29.712 
21:40	63.1	63.1	63.1	48	43.1	3	11	270	0.00	29.712 
21:45	63.2	63.2	63.2	48	43.2	4	12	270	0.00	29.715 
21:50	63.4	63.4	63.4	48	43.4	3	10	248	0.00	29.715 
21:55	63.4	63.4	63.4	48	43.4	3	9	248	0.00	29.715 
22:00	63.4	63.4	63.4	48	43.4	2	7	248	0.00	29.719 
22:05	63.4	63.4	63.4	47	42.8	3	6	270	0.00	29.719 
22:10	63.4	63.4	63.4	48	43.4	3	8	248	0.00	29.719 
22:15	63.4	63.4	63.4	48	43.4	3	11	248	0.00	29.720 
22:20	63.4	63.4	63.4	48	43.4	3	10	248	0.00	29.720 
22:25	63.5	63.5	63.5	47	42.9	3	9	270	0.00	29.720 
22:30	63.5	63.5	63.5	48	43.5	3	10	248	0.00	29.720 
22:35	63.4	63.4	63.4	47	42.8	4	11	248	0.00	29.720 
22:40	63.4	63.4	63.4	48	43.4	4	10	270	0.00	29.720 
22:45	63.4	63.4	63.4	49	43.9	3	6	248	0.00	29.723 
22:50	63.2	63.2	63.2	48	43.2	3	7	248	0.00	29.723 
22:55	63.1	63.1	63.1	48	43.1	3	6	248	0.00	29.723 
23:00	63.1	63.1	63.1	48	43.1	3	11	248	0.00	29.724 
23:05	63.1	63.1	63.1	49	43.6	2	6	248	0.00	29.724 
23:10	62.7	62.7	62.7	49	43.3	2	6	248	0.00	29.724 
23:15	62.7	62.7	62.7	49	43.3	3	9	248	0.00	29.721 
23:20	62.7	62.7	62.7	49	43.3	3	9	248	0.00	29.721 
23:25	62.6	62.6	62.6	49	43.2	3	7	248	0.00	29.721 
23:30	62.6	62.6	62.6	49	43.2	4	10	248	0.00	29.719 
23:35	62.6	62.6	62.6	50	43.7	3	6	248	0.00	29.719 
23:40	62.6	62.6	62.6	49	43.2	4	10	248	0.00	29.719 
23:45	62.7	62.7	62.7	49	43.3	4	14	248	0.00	29.721 
23:50	62.6	62.6	62.6	50	43.7	4	9	248	0.00	29.721 
23:55	62.4	62.4	62.4	50	43.5	4	9	248	0.00	29.721 

CoCoRaHS
IN-AL-39
A2 Web Hosting
Creative Commons License
GoDaddy
Look for:

loaded 2017-12-13 19:47:53 • last modified 2010-11-18 10:43:29
Privacy PolicyDisclaimer
• wx.awcolley.com is powered by PmWiki v.2002016 •
• all content (unless otherwise noted) © 2017 A W Colley